createdAt,value
2023-11-10T00:04:31.984Z,7.57
2023-11-10T00:09:39.563Z,7.54
2023-11-10T00:14:47.448Z,7.50
2023-11-10T00:19:55.195Z,7.46
2023-11-10T00:25:04.715Z,7.41
2023-11-10T00:30:14.214Z,7.40
2023-11-10T00:35:21.637Z,7.37
2023-11-10T00:40:28.790Z,7.34
2023-11-10T00:45:36.544Z,7.30
2023-11-10T00:50:44.076Z,7.26
2023-11-10T00:55:53.156Z,7.23
2023-11-10T01:01:00.451Z,7.21
2023-11-10T01:06:07.922Z,7.19
2023-11-10T01:11:16.001Z,7.14
2023-11-10T01:16:25.620Z,7.10
2023-11-10T01:21:33.613Z,7.09
2023-11-10T01:26:41.387Z,7.07
2023-11-10T01:31:49.238Z,7.05
2023-11-10T01:36:56.681Z,7.03
2023-11-10T01:42:06.008Z,7.03
2023-11-10T01:47:14.617Z,7.02
2023-11-10T01:52:22.838Z,7.02
2023-11-10T01:57:30.569Z,7.01
2023-11-10T02:02:38.467Z,6.99
2023-11-10T02:07:46.120Z,6.98
2023-11-10T02:12:58.072Z,6.96
2023-11-10T02:18:05.374Z,6.88
2023-11-10T02:23:12.876Z,6.97
2023-11-10T02:28:20.939Z,6.97
2023-11-10T02:33:28.178Z,6.97
2023-11-10T02:38:35.591Z,6.97
2023-11-10T02:43:43.594Z,6.98
2023-11-10T02:48:51.229Z,6.99
2023-11-10T02:53:59.017Z,6.99
2023-11-10T02:59:06.475Z,7.02
2023-11-10T03:04:14.441Z,7.01
2023-11-10T03:09:24.587Z,7.03
2023-11-10T03:14:32.401Z,7.02
2023-11-10T03:19:39.961Z,7.03
2023-11-10T03:24:49.439Z,7.03
2023-11-10T03:29:57.114Z,7.04
2023-11-10T03:35:04.791Z,7.05
2023-11-10T03:40:16.507Z,7.06
2023-11-10T03:45:24.193Z,7.06
2023-11-10T03:50:31.921Z,7.06
2023-11-10T03:55:39.107Z,7.05
2023-11-10T04:00:49.259Z,7.07
2023-11-10T04:05:57.456Z,7.08
2023-11-10T04:11:05.681Z,7.08
2023-11-10T04:16:19.481Z,7.08
2023-11-10T04:21:28.581Z,7.08
2023-11-10T04:26:36.187Z,7.10
2023-11-10T04:31:44.261Z,7.12
2023-11-10T04:36:53.333Z,7.14
2023-11-10T04:42:01.814Z,7.16
2023-11-10T04:47:09.268Z,7.18
2023-11-10T04:52:16.948Z,7.21
2023-11-10T04:57:25.879Z,7.23
2023-11-10T05:02:33.413Z,7.26
2023-11-10T05:07:40.864Z,7.27
2023-11-10T05:12:48.467Z,7.29
2023-11-10T05:17:55.911Z,7.30
2023-11-10T05:23:03.408Z,7.33
2023-11-10T05:28:10.682Z,7.33
2023-11-10T05:33:18.236Z,7.35
2023-11-10T05:38:25.763Z,7.35
2023-11-10T05:43:33.873Z,7.36
2023-11-10T05:48:41.865Z,7.37
2023-11-10T05:53:49.350Z,7.37
2023-11-10T05:58:56.897Z,7.35
2023-11-10T06:04:04.576Z,7.35
2023-11-10T06:09:12.517Z,7.37
2023-11-10T06:14:19.797Z,7.38
2023-11-10T06:19:27.676Z,7.38
2023-11-10T06:24:35.935Z,7.36
2023-11-10T06:29:43.575Z,7.35
2023-11-10T06:34:51.089Z,7.34
2023-11-10T06:39:58.598Z,7.33
2023-11-10T06:45:06.996Z,7.33
2023-11-10T06:50:14.886Z,7.34
2023-11-10T06:55:22.481Z,7.33
2023-11-10T07:00:30.966Z,7.34
2023-11-10T07:05:38.333Z,7.34
2023-11-10T07:10:46.600Z,7.37
2023-11-10T07:15:55.013Z,7.39
2023-11-10T07:21:03.117Z,7.41
2023-11-10T07:26:10.537Z,7.43
2023-11-10T07:31:18.143Z,7.46
2023-11-10T07:36:25.998Z,7.49
2023-11-10T07:41:33.509Z,7.52
2023-11-10T07:46:41.050Z,7.56
2023-11-10T07:51:48.375Z,7.59
2023-11-10T07:56:56.582Z,7.61
2023-11-10T08:02:04.398Z,7.66
2023-11-10T08:07:12.072Z,7.71
2023-11-10T08:12:19.409Z,7.77
2023-11-10T08:17:26.779Z,7.83
2023-11-10T08:22:33.990Z,7.90
2023-11-10T08:27:42.014Z,7.94
2023-11-10T08:32:49.544Z,7.99
2023-11-10T08:37:56.971Z,8.05
2023-11-10T08:43:04.450Z,8.09
2023-11-10T08:48:12.033Z,8.15
2023-11-10T08:53:19.282Z,8.24
2023-11-10T08:58:27.947Z,8.30
2023-11-10T09:03:35.431Z,8.37
2023-11-10T09:08:43.316Z,8.44
2023-11-10T09:13:52.685Z,8.49
2023-11-10T09:19:00.818Z,8.53
2023-11-10T09:24:08.760Z,8.58
2023-11-10T09:29:17.230Z,8.67
2023-11-10T09:34:26.155Z,8.73
2023-11-10T09:39:33.438Z,8.82
2023-11-10T09:44:42.667Z,8.90
2023-11-10T09:49:51.147Z,8.98
2023-11-10T09:54:59.126Z,9.06
2023-11-10T10:00:07.685Z,9.10
2023-11-10T10:05:14.982Z,9.16
2023-11-10T10:10:26.539Z,9.25
2023-11-10T10:15:34.950Z,9.37
2023-11-10T10:20:42.341Z,9.48
2023-11-10T10:25:49.656Z,9.59
2023-11-10T10:30:57.170Z,9.66
2023-11-10T10:36:05.139Z,9.72
2023-11-10T10:41:16.199Z,9.81
2023-11-10T10:46:24.489Z,9.90
2023-11-10T10:51:32.792Z,10.02
2023-11-10T10:56:45.285Z,10.12
2023-11-10T11:01:55.838Z,10.25
2023-11-10T11:07:34.986Z,10.37
2023-11-10T11:13:20.195Z,10.49
2023-11-10T11:18:50.563Z,10.57
2023-11-10T11:23:58.166Z,10.66
2023-11-10T11:29:11.075Z,10.77
2023-11-10T11:34:22.973Z,10.90
2023-11-10T11:39:31.424Z,10.98
2023-11-10T11:44:40.912Z,11.07
2023-11-10T11:49:48.164Z,11.14
2023-11-10T11:54:56.160Z,11.22
2023-11-10T12:00:10.661Z,11.27
2023-11-10T12:05:19.226Z,11.37
2023-11-10T12:10:26.466Z,11.41
2023-11-10T12:15:34.207Z,11.43
2023-11-10T12:20:42.552Z,11.46
2023-11-10T12:25:50.501Z,11.47
2023-11-10T12:30:57.871Z,11.47
2023-11-10T12:36:09.699Z,11.40
2023-11-10T12:41:17.084Z,11.50
2023-11-10T12:46:25.376Z,11.49
2023-11-10T12:51:34.867Z,11.47
2023-11-10T12:56:44.790Z,11.47
2023-11-10T13:01:52.415Z,11.46
2023-11-10T13:06:59.943Z,11.45
2023-11-10T13:12:10.221Z,11.44
2023-11-10T13:17:19.941Z,11.43
2023-11-10T13:22:27.414Z,11.41
2023-11-10T13:27:34.623Z,11.39
2023-11-10T13:32:41.872Z,11.37
2023-11-10T13:37:49.507Z,11.34
2023-11-10T13:42:56.975Z,11.32
2023-11-10T13:48:04.221Z,11.28
2023-11-10T13:53:11.635Z,11.24
2023-11-10T13:58:18.992Z,11.21
2023-11-10T14:03:26.324Z,11.14
2023-11-10T14:08:34.378Z,11.10
2023-11-10T14:13:41.886Z,11.05
2023-11-10T14:18:50.449Z,11.01
2023-11-10T14:23:58.143Z,10.95
2023-11-10T14:29:05.646Z,10.89
2023-11-10T14:34:14.866Z,10.85
2023-11-10T14:39:22.951Z,10.80
2023-11-10T14:44:30.483Z,10.75
2023-11-10T14:49:45.023Z,10.70
2023-11-10T14:54:52.612Z,10.63
2023-11-10T14:59:59.911Z,10.59
2023-11-10T15:05:09.156Z,10.55
2023-11-10T15:10:18.853Z,10.50
2023-11-10T15:15:26.287Z,10.47
2023-11-10T15:20:34.062Z,10.42
2023-11-10T15:25:41.285Z,10.38
2023-11-10T15:30:49.384Z,10.33
2023-11-10T15:35:56.747Z,10.29
2023-11-10T15:41:04.537Z,10.24
2023-11-10T15:46:12.404Z,10.21
2023-11-10T15:51:20.191Z,10.18
2023-11-10T15:56:27.377Z,10.14
2023-11-10T16:01:35.702Z,10.11
2023-11-10T16:06:43.441Z,10.08
2023-11-10T16:11:51.163Z,10.05
2023-11-10T16:16:58.526Z,10.03
2023-11-10T16:22:06.128Z,9.99
2023-11-10T16:27:13.858Z,9.98
2023-11-10T16:32:21.951Z,9.95
2023-11-10T16:37:29.324Z,9.92
2023-11-10T16:42:37.121Z,9.90
2023-11-10T16:47:44.341Z,9.88
2023-11-10T16:52:51.777Z,9.85
2023-11-10T16:57:59.064Z,9.82
2023-11-10T17:03:07.412Z,9.77
2023-11-10T17:08:14.832Z,9.75
2023-11-10T17:13:22.211Z,9.71
2023-11-10T17:18:29.440Z,9.67
2023-11-10T17:23:36.687Z,9.64
2023-11-10T17:28:44.023Z,9.62
2023-11-10T17:33:51.196Z,9.60
2023-11-10T17:38:58.587Z,9.58
2023-11-10T17:44:06.080Z,9.56
2023-11-10T17:49:13.536Z,9.55
2023-11-10T17:54:21.808Z,9.49
2023-11-10T17:59:29.446Z,9.52
2023-11-10T18:04:48.984Z,9.49
2023-11-10T18:10:00.375Z,9.48
2023-11-10T18:15:09.002Z,9.44
2023-11-10T18:20:17.184Z,9.43
2023-11-10T18:25:24.650Z,9.41
2023-11-10T18:30:32.165Z,9.37
2023-11-10T18:35:39.392Z,9.36
2023-11-10T18:40:46.930Z,9.34
2023-11-10T18:45:54.438Z,9.31
2023-11-10T18:51:02.927Z,9.30
2023-11-10T18:56:12.030Z,9.27
2023-11-10T19:01:19.279Z,9.25
2023-11-10T19:06:29.510Z,9.22
2023-11-10T19:11:38.913Z,9.20
2023-11-10T19:16:46.412Z,9.18
2023-11-10T19:21:54.550Z,9.18
2023-11-10T19:27:01.943Z,9.17
2023-11-10T19:32:10.816Z,9.16
2023-11-10T19:37:18.000Z,9.15
2023-11-10T19:42:25.489Z,9.13
2023-11-10T19:47:35.478Z,9.12
2023-11-10T19:52:42.718Z,9.11
2023-11-10T19:57:50.014Z,9.09
2023-11-10T20:02:57.769Z,9.09
2023-11-10T20:08:05.302Z,9.08
2023-11-10T20:13:12.883Z,9.07
2023-11-10T20:18:20.337Z,9.06
2023-11-10T20:23:27.490Z,9.06
2023-11-10T20:28:37.244Z,9.04
2023-11-10T20:33:44.834Z,9.06
2023-11-10T20:38:52.851Z,9.06
2023-11-10T20:44:00.353Z,9.06
2023-11-10T20:49:07.653Z,9.04
2023-11-10T20:54:15.039Z,9.04
2023-11-10T20:59:22.286Z,9.03
2023-11-10T21:04:29.907Z,9.01
2023-11-10T21:09:38.154Z,8.99
2023-11-10T21:14:45.726Z,8.96
2023-11-10T21:19:53.633Z,8.95
2023-11-10T21:25:00.962Z,8.93
2023-11-10T21:30:12.287Z,8.89
2023-11-10T21:35:27.419Z,8.87
2023-11-10T21:40:34.744Z,8.85
2023-11-10T21:45:43.842Z,8.81
2023-11-10T21:50:51.481Z,8.79
2023-11-10T21:55:58.756Z,8.76
2023-11-10T22:01:06.332Z,8.71
2023-11-10T22:06:14.070Z,8.72
2023-11-10T22:11:21.892Z,8.68
2023-11-10T22:16:29.477Z,8.67
2023-11-10T22:21:41.439Z,8.63
2023-11-10T22:26:48.765Z,8.62
2023-11-10T22:31:56.091Z,8.60
2023-11-10T22:37:04.702Z,8.57
2023-11-10T22:42:12.048Z,8.57
2023-11-10T22:47:19.416Z,8.55
2023-11-10T22:52:26.748Z,8.54
2023-11-10T22:57:33.970Z,8.50
2023-11-10T23:02:41.799Z,8.48
2023-11-10T23:07:49.007Z,8.45
2023-11-10T23:13:00.168Z,8.43
2023-11-10T23:18:10.820Z,8.41
2023-11-10T23:23:18.764Z,8.37
2023-11-10T23:28:25.997Z,8.35
2023-11-10T23:33:33.188Z,8.32
2023-11-10T23:38:40.458Z,8.29
2023-11-10T23:43:47.647Z,8.26
2023-11-10T23:48:56.973Z,8.25
2023-11-10T23:54:04.519Z,8.21
2023-11-10T23:59:12.449Z,8.17
